Time;durP1;ratioP1;P1;durP2;ratioP2;P2;SDS_P1;SDS_P2;PMS_P1;PMS_P2;Temp;Humidity;BMP_temperature;BMP_pressure;BME280_temperature;BME280_humidity;BME280_pressure;Samples;Min_cycle;Max_cycle;Signal;HPM_P1;HPM_P2
2021/08/10 00:00:07;;;;;;;16.15;11.45;;;;;;;16.34;100.00;99642.08;1660399;86;21143;-72
2021/08/10 00:02:35;;;;;;;11.78;10.05;;;;;;;16.35;100.00;99638.29;1660803;86;21063;-71
2021/08/10 00:05:06;;;;;;;12.10;10.88;;;;;;;16.34;100.00;99636.14;1660517;86;20944;-71
2021/08/10 00:07:35;;;;;;;16.80;11.60;;;;;;;16.32;100.00;99637.52;1660523;86;21010;-72
2021/08/10 00:10:05;;;;;;;19.52;14.15;;;;;;;16.29;100.00;99641.59;1660613;86;20987;-71
2021/08/10 00:12:34;;;;;;;24.50;16.02;;;;;;;16.26;100.00;99640.27;1660337;86;21604;-72
2021/08/10 00:15:05;;;;;;;18.75;13.93;;;;;;;16.23;100.00;99642.75;1660607;86;20900;-71
2021/08/10 00:17:33;;;;;;;24.40;16.00;;;;;;;16.18;100.00;99638.75;1660540;86;21006;-71
2021/08/10 00:19:59;;;;;;;20.57;13.18;;;;;;;16.15;100.00;99646.91;1660433;86;20955;-71
2021/08/10 00:22:27;;;;;;;;;;;;;;;16.11;100.00;99641.80;1663144;86;21589;-71
2021/08/10 00:24:54;;;;;;;21.27;15.83;;;;;;;16.06;100.00;99644.02;1660489;86;21174;-69
2021/08/10 00:27:22;;;;;;;52.38;28.42;;;;;;;16.03;100.00;99645.95;1660409;86;21660;-73
2021/08/10 00:29:48;;;;;;;53.80;30.17;;;;;;;16.03;100.00;99642.45;1660870;86;21608;-72
2021/08/10 00:32:16;;;;;;;44.63;25.55;;;;;;;16.02;100.00;99643.00;1660402;86;21004;-71
2021/08/10 00:34:44;;;;;;;51.92;30.35;;;;;;;16.00;100.00;99647.09;1660697;86;20963;-74
2021/08/10 00:37:14;;;;;;;59.95;34.50;;;;;;;15.97;100.00;99638.16;1660510;86;21185;-71
2021/08/10 00:39:42;;;;;;;58.63;30.92;;;;;;;15.94;100.00;99642.25;1660429;86;20998;-71
2021/08/10 00:42:11;;;;;;;30.97;20.32;;;;;;;15.89;100.00;99639.60;1660571;86;20931;-72
2021/08/10 00:44:39;;;;;;;25.85;17.48;;;;;;;15.85;100.00;99639.38;1660516;86;21010;-72
2021/08/10 00:47:07;;;;;;;30.90;20.37;;;;;;;15.83;100.00;99642.91;1660633;86;20948;-71
2021/08/10 00:49:34;;;;;;;17.70;15.75;;;;;;;15.84;100.00;99651.84;1660683;86;21184;-72
2021/08/10 00:52:05;;;;;;;21.45;15.63;;;;;;;15.81;100.00;99639.69;1660371;86;21041;-72
2021/08/10 00:54:33;;;;;;;15.75;12.60;;;;;;;15.79;100.00;99651.34;1660701;86;21022;-73
2021/08/10 00:57:01;;;;;;;14.40;11.40;;;;;;;15.75;100.00;99649.48;1660799;86;21007;-71
2021/08/10 00:59:34;;;;;;;12.82;10.20;;;;;;;15.71;100.00;99645.75;1660615;86;21561;-71
2021/08/10 01:02:04;;;;;;;15.43;9.90;;;;;;;15.67;100.00;99646.83;1660575;86;21157;-73
2021/08/10 01:04:31;;;;;;;13.22;10.75;;;;;;;15.65;100.00;99651.70;1660346;86;20999;-72
2021/08/10 01:07:16;;;;;;;11.70;10.50;;;;;;;15.63;100.00;99655.27;1660661;86;21029;-73
2021/08/10 01:10:01;;;;;;;11.15;10.05;;;;;;;15.62;100.00;99650.94;1660463;86;21054;-71
2021/08/10 01:12:45;;;;;;;12.35;10.50;;;;;;;15.59;100.00;99652.31;1660380;84;21068;-72
2021/08/10 01:15:16;;;;;;;12.13;10.43;;;;;;;15.56;100.00;99648.03;1660060;86;21069;-72
2021/08/10 01:18:06;;;;;;;12.43;10.98;;;;;;;15.54;100.00;99652.91;1660668;86;20864;-71
2021/08/10 01:21:26;;;;;;;10.30;9.30;;;;;;;15.51;100.00;99650.23;1660494;86;21019;-72
2021/08/10 01:24:21;;;;;;;13.85;10.95;;;;;;;15.48;100.00;99652.13;1605962;88;21494;-71
2021/08/10 01:27:32;;;;;;;13.22;11.28;;;;;;;15.45;100.00;99651.34;1605817;89;21472;-72
2021/08/10 01:30:16;;;;;;;14.47;12.07;;;;;;;15.43;100.00;99657.06;1633542;87;21187;-71
2021/08/10 01:32:45;;;;;;;11.83;10.72;;;;;;;15.40;100.00;99647.34;1633202;87;20911;-71
2021/08/10 01:35:14;;;;;;;16.35;12.15;;;;;;;15.37;100.00;99645.20;1621039;88;21555;-71
2021/08/10 01:37:42;;;;;;;;;;;;;;;15.37;100.00;99646.55;1623273;88;20992;-71
2021/08/10 01:40:12;;;;;;;14.55;10.88;;;;;;;15.37;100.00;99646.55;1621205;88;20097;-71
2021/08/10 01:42:44;;;;;;;16.12;11.53;;;;;;;15.36;100.00;99645.76;1620929;87;21533;-71
2021/08/10 01:45:12;;;;;;;12.37;11.10;;;;;;;15.37;100.00;99639.80;1621526;88;20984;-71
2021/08/10 01:47:41;;;;;;;13.15;11.65;;;;;;;15.36;100.00;99644.41;1620866;88;21044;-71
2021/08/10 01:50:10;;;;;;;13.50;11.70;;;;;;;15.36;100.00;99647.11;1620986;88;21016;-71
2021/08/10 01:52:39;;;;;;;17.40;11.28;;;;;;;15.35;100.00;99648.18;1620831;88;21544;-71
2021/08/10 01:55:10;;;;;;;16.40;13.60;;;;;;;15.34;100.00;99648.48;1620227;87;21054;-72
2021/08/10 01:57:38;;;;;;;21.25;14.20;;;;;;;15.34;100.00;99649.84;1605331;88;21531;-71
2021/08/10 02:00:08;;;;;;;53.98;26.75;;;;;;;15.33;100.00;99656.31;1654108;85;20936;-69
2021/08/10 02:02:43;;;;;;;68.85;34.53;;;;;;;15.33;100.00;99649.00;1660225;86;20967;-74
2021/08/10 02:05:12;;;;;;;68.30;35.92;;;;;;;15.34;100.00;99649.28;1660630;86;20980;-70
2021/08/10 02:07:39;;;;;;;60.55;34.03;;;;;;;15.32;100.00;99651.45;1660773;86;21176;-71
2021/08/10 02:10:08;;;;;;;51.92;32.63;;;;;;;15.32;100.00;99658.77;1662206;86;21438;-70
2021/08/10 02:12:37;;;;;;;34.53;24.30;;;;;;;15.31;100.00;99649.02;1662062;86;20963;-72
2021/08/10 02:15:06;;;;;;;24.12;18.75;;;;;;;15.29;100.00;99644.47;1660388;86;20959;-72
2021/08/10 02:17:36;;;;;;;18.30;13.10;;;;;;;15.30;100.00;99648.23;1661973;85;21063;-74
2021/08/10 02:20:09;;;;;;;14.05;12.63;;;;;;;15.27;100.00;99647.45;1660419;86;20960;-71
2021/08/10 02:22:37;;;;;;;14.80;11.90;;;;;;;15.28;100.00;99646.34;1661997;86;20940;-72
2021/08/10 02:25:07;;;;;;;17.92;13.28;;;;;;;15.25;100.00;99646.11;1660806;86;21478;-72
2021/08/10 02:27:57;;;;;;;17.48;14.18;;;;;;;15.22;100.00;99637.47;1660480;86;20971;-71
2021/08/10 02:30:30;;;;;;;18.52;15.03;;;;;;;15.21;100.00;99633.69;1639878;86;20991;-70
2021/08/10 02:32:59;;;;;;;23.07;18.10;;;;;;;15.19;100.00;99635.34;1660392;86;21003;-71
2021/08/10 02:35:28;;;;;;;21.27;17.37;;;;;;;15.17;100.00;99633.45;1660506;86;21439;-72
2021/08/10 02:38:00;;;;;;;22.42;16.70;;;;;;;15.14;100.00;99621.86;1660564;86;20927;-71
2021/08/10 02:40:29;;;;;;;20.55;16.67;;;;;;;15.16;100.00;99631.86;1660398;86;21046;-70
2021/08/10 02:42:59;;;;;;;20.17;17.70;;;;;;;15.18;100.00;99636.41;1660562;86;20947;-72
2021/08/10 02:45:26;;;;;;;;;;;;;;;15.19;100.00;99630.48;1662883;86;21157;-71
2021/08/10 02:47:56;;;;;;;20.30;17.40;;;;;;;15.15;100.00;99627.52;1660376;86;20161;-72
2021/08/10 02:50:27;;;;;;;22.95;17.00;;;;;;;15.16;100.00;99630.51;1660589;86;21430;-73
2021/08/10 02:52:55;;;;;;;19.57;16.77;;;;;;;15.18;100.00;99628.30;1660320;86;21585;-71
2021/08/10 02:55:23;;;;;;;19.15;16.65;;;;;;;15.20;100.00;99628.83;1660505;86;21042;-71
2021/08/10 02:58:09;;;;;;;19.82;17.60;;;;;;;15.22;100.00;99631.27;1660573;86;21834;-71
2021/08/10 03:00:44;;;;;;;19.07;16.55;;;;;;;15.20;100.00;99632.89;1660215;86;20959;-72
2021/08/10 03:03:14;;;;;;;17.92;15.98;;;;;;;15.22;100.00;99636.12;1660475;86;21491;-70
2021/08/10 03:05:41;;;;;;;17.23;15.43;;;;;;;15.22;100.00;99635.32;1662061;86;21565;-71
2021/08/10 03:08:10;;;;;;;16.95;15.15;;;;;;;15.23;100.00;99640.98;1660775;86;20967;-70
2021/08/10 03:10:38;;;;;;;18.35;15.53;;;;;;;15.25;100.00;99632.59;1662099;86;21181;-69
2021/08/10 03:13:07;;;;;;;17.25;14.50;;;;;;;15.26;100.00;99632.84;1660607;86;21102;-71
2021/08/10 03:15:38;;;;;;;21.42;16.25;;;;;;;15.27;100.00;99639.33;1662297;86;21521;-70
2021/08/10 03:18:11;;;;;;;20.75;15.58;;;;;;;15.29;100.00;99637.71;1661821;86;20955;-68
2021/08/10 03:20:42;;;;;;;18.40;14.87;;;;;;;15.31;100.00;99637.69;1660590;86;21021;-71
2021/08/10 03:23:13;;;;;;;15.50;12.65;;;;;;;15.33;100.00;99638.19;1662004;86;21817;-72
2021/08/10 03:25:40;;;;;;;17.65;14.33;;;;;;;15.32;100.00;99641.99;1639064;86;21522;-71
2021/08/10 03:28:09;;;;;;;17.50;13.85;;;;;;;15.35;100.00;99627.90;1660574;86;21007;-71
2021/08/10 03:30:37;;;;;;;16.02;14.30;;;;;;;15.39;100.00;99635.72;1660561;86;20979;-70
2021/08/10 03:33:04;;;;;;;18.60;14.63;;;;;;;15.44;100.00;99629.46;1660465;86;20947;-70
2021/08/10 03:35:30;;;;;;;14.98;13.38;;;;;;;15.51;100.00;99633.20;1660681;86;21160;-71
2021/08/10 03:37:58;;;;;;;18.37;14.07;;;;;;;15.59;100.00;99636.08;1660590;86;20959;-70
2021/08/10 03:40:26;;;;;;;15.40;13.80;;;;;;;15.68;100.00;99641.69;1660584;86;21475;-70
2021/08/10 03:42:54;;;;;;;19.80;15.10;;;;;;;15.76;100.00;99632.17;1660632;86;21526;-71
2021/08/10 03:45:24;;;;;;;;;;;;;;;15.82;100.00;99633.72;1642441;86;21062;-71
2021/08/10 03:47:52;;;;;;;15.60;14.00;;;;;;;15.86;100.00;99634.77;1660539;86;21177;-70
2021/08/10 03:50:20;;;;;;;20.83;14.67;;;;;;;15.93;100.00;99641.20;1660688;86;20919;-70
2021/08/10 03:52:50;;;;;;;18.70;14.33;;;;;;;15.99;100.00;99646.26;1660841;86;21011;-70
2021/08/10 03:55:21;;;;;;;18.73;14.25;;;;;;;16.07;100.00;99642.14;1658648;85;20987;-70
2021/08/10 03:57:48;;;;;;;21.30;18.35;;;;;;;16.15;100.00;99644.76;1660375;86;21150;-70
2021/08/10 04:00:16;;;;;;;16.85;15.08;;;;;;;16.20;100.00;99640.08;1660660;86;21856;-69
2021/08/10 04:02:48;;;;;;;18.75;14.13;;;;;;;16.25;100.00;99640.57;1660554;86;21003;-70
2021/08/10 04:05:17;;;;;;;15.20;13.60;;;;;;;16.31;100.00;99640.75;1660340;86;21051;-71
2021/08/10 04:07:46;;;;;;;17.48;15.68;;;;;;;16.35;100.00;99643.15;1660573;86;20923;-71
2021/08/10 04:10:15;;;;;;;16.50;14.23;;;;;;;16.39;100.00;99644.72;1660420;86;21006;-71
2021/08/10 04:12:43;;;;;;;;;;;;;;;16.41;100.00;99647.42;1663039;86;21434;-72
2021/08/10 04:15:12;;;;;;;17.70;14.80;;;;;;;16.46;100.00;99643.30;1660927;86;20141;-71
2021/08/10 04:17:39;;;;;;;20.62;15.23;;;;;;;16.48;100.00;99638.92;1660427;86;21039;-69
2021/08/10 04:20:08;;;;;;;16.85;14.65;;;;;;;16.55;100.00;99639.93;1660431;86;21039;-70
2021/08/10 04:22:35;;;;;;;18.17;15.63;;;;;;;16.60;100.00;99641.21;1660454;86;21018;-72
2021/08/10 04:25:06;;;;;;;20.92;16.10;;;;;;;16.65;100.00;99639.23;1660395;86;21061;-72
2021/08/10 04:27:33;;;;;;;16.97;14.87;;;;;;;16.67;100.00;99639.75;1660638;86;21094;-73
2021/08/10 04:30:01;;;;;;;19.73;17.27;;;;;;;16.72;100.00;99638.88;1660548;86;20999;-72
2021/08/10 04:32:28;;;;;;;15.78;14.18;;;;;;;16.78;100.00;99635.54;1660519;86;21139;-71
2021/08/10 04:34:55;;;;;;;15.45;13.80;;;;;;;16.85;100.00;99637.37;1660413;86;20931;-71
2021/08/10 04:37:24;;;;;;;17.07;14.73;;;;;;;16.92;100.00;99646.74;1660488;86;21178;-72
2021/08/10 04:39:52;;;;;;;16.62;14.53;;;;;;;17.03;100.00;99652.04;1661727;86;20997;-72
2021/08/10 09:05:39;;;;;;;3.10;2.22;;;;;;;27.37;67.61;99598.23;1722381;81;21374;-68
2021/08/10 09:08:29;;;;;;;3.80;2.00;;;;;;;27.41;68.66;99596.31;1700576;81;21431;-67
2021/08/10 09:11:04;;;;;;;3.12;1.87;;;;;;;27.58;69.38;99600.55;1627063;87;21462;-69
2021/08/10 09:13:34;;;;;;;6.75;1.98;;;;;;;27.61;64.54;99600.41;1639128;86;21111;-68
2021/08/10 09:16:04;;;;;;;2.62;1.70;;;;;;;27.18;64.92;99600.98;1650199;87;21114;-68
2021/08/10 09:18:38;;;;;;;3.58;2.52;;;;;;;27.28;64.00;99603.95;1649086;85;20991;-68
2021/08/10 09:21:15;;;;;;;2.87;1.90;;;;;;;27.55;64.38;99599.33;1652470;85;21517;-69
2021/08/10 09:24:10;;;;;;;2.62;1.92;;;;;;;27.16;62.88;99602.72;1677224;85;21073;-68
2021/08/10 09:35:03;;;;;;;4.42;2.00;;;;;;;27.28;64.27;99600.41;1430757;98;21079;-68
2021/08/10 09:45:02;;;;;;;1.92;1.65;;;;;;;28.37;60.25;99610.93;1342662;105;21674;-70
2021/08/10 09:47:47;;;;;;;8.23;2.15;;;;;;;27.40;56.12;99597.49;1332776;106;21219;-69
2021/08/10 09:50:39;;;;;;;4.45;2.05;;;;;;;27.70;58.64;99598.99;1318582;107;21614;-70
2021/08/10 09:54:05;;;;;;;2.35;1.55;;;;;;;27.61;57.11;99590.75;1311358;108;21165;-70
2021/08/10 09:56:55;;;;;;;3.15;1.90;;;;;;;27.75;57.30;99586.86;1325930;105;21097;-69
2021/08/10 09:59:28;;;;;;;2.20;1.90;;;;;;;28.16;57.64;99592.08;1311376;109;21176;-69
2021/08/10 10:02:43;;;;;;;7.65;1.80;;;;;;;28.46;57.98;99592.73;1311526;109;21200;-72
2021/08/10 10:13:00;;;;;;;2.45;1.98;;;;;;;27.76;55.70;99583.75;1586956;89;20998;-68
2021/08/10 10:16:07;;;;;;;12.43;2.40;;;;;;;28.03;56.86;99586.57;1495208;94;21468;-69
2021/08/10 10:21:58;;;;;;;2.83;2.17;;;;;;;28.80;54.35;99581.14;1316426;107;21188;-68
2021/08/10 10:24:27;;;;;;;4.20;1.75;;;;;;;28.17;56.07;99583.21;1324312;107;21055;-68
2021/08/10 10:27:00;;;;;;;3.20;2.83;;;;;;;28.00;56.21;99574.87;1324494;108;21206;-68
2021/08/10 10:29:27;;;;;;;2.80;1.92;;;;;;;27.99;55.51;99576.84;1324738;107;21578;-69
2021/08/10 10:32:18;;;;;;;6.45;2.27;;;;;;;28.36;56.57;99578.17;1324528;108;21434;-69
2021/08/10 10:34:46;;;;;;;4.22;2.35;;;;;;;28.62;53.00;99575.99;1327716;106;21054;-68
2021/08/10 10:37:26;;;;;;;5.45;2.42;;;;;;;28.54;52.03;99566.01;1369289;104;21195;-67
2021/08/10 10:40:02;;;;;;;2.95;2.35;;;;;;;28.58;53.50;99573.17;1436375;96;21149;-67
2021/08/10 10:42:29;;;;;;;5.25;2.10;;;;;;;28.88;54.29;99571.56;1479100;96;21003;-67
2021/08/10 10:44:55;;;;;;;3.70;2.40;;;;;;;28.61;53.39;99562.78;1491529;91;21528;-67
2021/08/10 10:47:33;;;;;;;2.52;2.30;;;;;;;28.33;55.47;99552.70;1560702;92;21023;-67
2021/08/10 10:50:05;;;;;;;3.45;2.00;;;;;;;28.19;53.79;99560.19;1565228;90;21461;-67
2021/08/10 10:52:34;;;;;;;2.70;2.00;;;;;;;28.49;53.63;99571.27;1568210;90;21545;-68
2021/08/10 10:55:05;;;;;;;4.17;2.10;;;;;;;28.67;53.29;99567.97;1595338;88;21471;-68
2021/08/10 10:57:35;;;;;;;5.70;1.82;;;;;;;28.78;51.05;99566.91;1614151;85;21100;-67
2021/08/10 11:00:12;;;;;;;4.15;1.87;;;;;;;29.00;51.13;99566.56;1739270;81;21003;-68
2021/08/10 11:02:40;;;;;;;4.85;2.42;;;;;;;28.61;52.00;99569.69;1768905;81;20854;-67
2021/08/10 11:05:23;;;;;;;3.60;2.20;;;;;;;28.66;50.74;99570.50;1773235;80;21372;-68
2021/08/10 11:07:57;;;;;;;2.77;2.17;;;;;;;28.49;51.70;99562.20;1759957;80;21683;-69
2021/08/10 11:10:45;;;;;;;4.62;2.45;;;;;;;28.79;52.14;99570.48;1713339;81;21103;-68
2021/08/10 11:13:27;;;;;;;3.55;2.00;;;;;;;29.05;49.31;99568.98;1753755;80;20936;-68
2021/08/10 11:16:15;;;;;;;4.33;2.22;;;;;;;29.33;51.00;99566.36;1753774;80;21021;-69
2021/08/10 11:19:04;;;;;;;4.35;2.47;;;;;;;29.33;49.20;99566.36;1632127;85;21131;-69
2021/08/10 11:21:43;;;;;;;17.92;2.50;;;;;;;28.80;49.37;99560.42;1590673;88;21082;-69
2021/08/10 11:25:02;;;;;;;5.67;1.92;;;;;;;28.43;49.91;99554.22;1580381;89;21003;-67
2021/08/10 11:27:43;;;;;;;17.85;3.33;;;;;;;28.47;49.18;99552.11;1607134;89;20933;-66
2021/08/10 11:30:27;;;;;;;10.53;2.25;;;;;;;28.83;49.31;99551.41;1606837;89;21015;-68
2021/08/10 11:32:59;;;;;;;8.60;2.47;;;;;;;28.77;50.79;99554.88;1568588;89;21128;-67
2021/08/10 11:35:57;;;;;;;3.25;2.08;;;;;;;28.67;51.83;99548.64;1592902;90;21372;-68
2021/08/10 11:38:24;;;;;;;4.10;2.52;;;;;;;28.56;50.21;99545.13;1595615;89;22126;-68
2021/08/10 11:41:04;;;;;;;5.00;2.35;;;;;;;28.35;51.29;99541.50;1548825;90;21023;-67
2021/08/10 11:46:44;;;;;;;9.60;2.22;;;;;;;29.02;50.02;99542.72;1535165;91;21171;-67
2021/08/10 11:49:29;;;;;;;6.40;2.20;;;;;;;28.80;48.07;99550.76;1556792;89;21051;-68
2021/08/10 11:52:19;;;;;;;7.53;2.42;;;;;;;28.06;50.29;99551.34;1632221;83;21147;-67
2021/08/10 11:54:58;;;;;;;3.08;2.10;;;;;;;28.15;51.85;99550.49;1629708;87;21115;-67
2021/08/10 11:57:29;;;;;;;6.78;2.42;;;;;;;28.22;50.66;99541.50;1583546;88;21035;-67
2021/08/10 12:00:13;;;;;;;2.55;2.00;;;;;;;28.57;49.43;99541.22;1593234;88;21103;-67
2021/08/10 12:02:44;;;;;;;4.50;2.33;;;;;;;28.80;48.02;99541.09;1613838;88;20984;-68
2021/08/10 12:05:26;;;;;;;8.80;2.42;;;;;;;29.22;48.61;99547.48;1611680;88;21682;-67
2021/08/10 12:07:59;;;;;;;4.28;3.12;;;;;;;29.34;48.63;99542.27;1588918;90;21034;-67
2021/08/10 12:10:30;;;;;;;5.70;2.40;;;;;;;29.43;48.83;99537.23;1626400;86;20953;-67
2021/08/10 12:13:06;;;;;;;4.95;2.20;;;;;;;29.61;45.37;99526.31;1626087;88;21416;-67
2021/08/10 12:15:41;;;;;;;4.15;2.20;;;;;;;29.59;46.95;99534.98;1577253;89;20959;-66
2021/08/10 12:18:07;;;;;;;3.87;2.02;;;;;;;29.74;46.51;99531.77;1563352;90;21169;-67
2021/08/10 12:20:33;;;;;;;2.47;1.67;;;;;;;29.50;46.23;99534.53;1564225;90;21084;-67
2021/08/10 12:23:06;;;;;;;6.67;2.58;;;;;;;29.32;47.10;99532.97;1562613;90;20907;-67
2021/08/10 12:25:33;;;;;;;2.87;2.00;;;;;;;29.35;45.67;99523.94;1595013;88;20973;-67
2021/08/10 12:28:10;;;;;;;15.98;2.12;;;;;;;29.38;45.22;99520.41;1596118;90;20985;-67
2021/08/10 12:30:39;;;;;;;2.67;1.90;;;;;;;29.40;45.17;99515.85;1596515;89;21837;-67
2021/08/10 12:33:21;;;;;;;2.08;1.67;;;;;;;29.52;45.62;99522.50;1649822;86;20955;-67
2021/08/10 12:36:03;;;;;;;9.45;2.40;;;;;;;29.39;44.32;99513.69;1670470;85;21150;-67
2021/08/10 12:38:30;;;;;;;3.27;1.70;;;;;;;29.23;44.55;99507.05;1698698;82;21462;-66
2021/08/10 12:40:57;;;;;;;4.62;1.80;;;;;;;28.97;44.03;99491.95;1718074;83;20977;-65
2021/08/10 12:43:24;;;;;;;2.30;1.80;;;;;;;29.03;46.55;99506.99;1748899;80;21739;-67
2021/08/10 12:46:03;;;;;;;3.02;1.90;;;;;;;28.95;44.15;99499.81;1752735;80;21015;-67
2021/08/10 12:51:57;;;;;;;8.25;2.40;;;;;;;28.47;45.29;99496.34;1573371;90;21574;-67
2021/08/10 12:54:27;;;;;;;2.00;1.85;;;;;;;28.88;46.77;99492.83;1551420;90;21049;-68
2021/08/10 12:57:01;;;;;;;4.00;1.80;;;;;;;29.05;44.36;99499.91;1579877;90;21131;-67
2021/08/10 12:59:42;;;;;;;2.47;1.70;;;;;;;29.12;45.57;99491.53;1564946;91;21055;-68
2021/08/10 13:02:10;;;;;;;7.55;1.70;;;;;;;29.13;43.54;99491.16;1566459;90;21075;-68
2021/08/10 13:04:56;;;;;;;4.25;1.90;;;;;;;28.95;44.79;99489.55;1568559;90;21020;-67
2021/08/10 13:07:23;;;;;;;5.40;2.70;;;;;;;28.81;42.58;99490.22;1581746;90;21146;-67
2021/08/10 13:09:56;;;;;;;6.80;1.60;;;;;;;28.79;43.43;99483.48;1582399;90;21920;-66
2021/08/10 13:12:25;;;;;;;3.95;1.77;;;;;;;29.01;41.40;99470.69;1577101;90;21106;-67
2021/08/10 13:15:04;;;;;;;4.80;2.08;;;;;;;28.98;41.83;99482.48;1586544;90;21011;-67
2021/08/10 13:17:42;;;;;;;3.50;1.50;;;;;;;28.82;43.28;99486.27;1594895;89;20990;-67
2021/08/10 13:20:11;;;;;;;;;;;;;;;28.96;40.79;99469.66;1597944;88;21010;-68
2021/08/10 13:22:56;;;;;;;4.67;1.60;;;;;;;28.80;41.45;99478.16;1595768;90;21141;-67
2021/08/10 13:25:28;;;;;;;4.95;2.83;;;;;;;28.85;39.05;99481.95;1586364;88;21024;-68
2021/08/10 13:28:13;;;;;;;3.17;2.30;;;;;;;28.90;39.83;99484.97;1566757;89;21097;-68
2021/08/10 13:30:40;;;;;;;1.47;1.37;;;;;;;29.00;39.13;99483.68;1644825;86;21510;-68
2021/08/10 13:33:18;;;;;;;3.10;1.60;;;;;;;29.06;37.63;99481.42;1552865;90;21724;-68
2021/08/10 13:35:44;;;;;;;1.98;1.50;;;;;;;28.99;38.17;99481.32;1599535;89;21125;-68
2021/08/10 13:38:12;;;;;;;2.40;1.62;;;;;;;29.15;38.24;99480.50;1590524;90;21036;-67
2021/08/10 13:40:39;;;;;;;3.40;1.90;;;;;;;29.32;38.17;99479.66;1649916;86;21374;-68
2021/08/10 13:43:07;;;;;;;86.08;7.30;;;;;;;29.34;36.79;99479.48;1628256;86;21836;-67
2021/08/10 13:45:39;;;;;;;4.62;1.47;;;;;;;29.42;37.15;99476.19;1619566;87;21450;-68
2021/08/10 13:48:15;;;;;;;7.40;1.80;;;;;;;29.59;36.55;99478.29;1625488;86;21594;-69
2021/08/10 13:50:42;;;;;;;4.15;1.50;;;;;;;29.60;35.89;99474.96;1587663;89;20960;-68
2021/08/10 13:53:22;;;;;;;3.98;1.47;;;;;;;29.49;36.38;99470.72;1607703;87;20951;-69
2021/08/10 13:56:03;;;;;;;9.73;1.75;;;;;;;29.47;35.68;99467.53;1587916;90;21016;-65
2021/08/10 13:58:32;;;;;;;1.90;1.50;;;;;;;29.46;36.53;99467.34;1588370;90;21031;-67
2021/08/10 14:01:00;;;;;;;4.30;1.75;;;;;;;29.41;36.83;99465.72;1607339;88;21227;-67
2021/08/10 14:03:26;;;;;;;5.85;1.87;;;;;;;29.64;36.29;99461.37;1634040;87;21025;-66
2021/08/10 14:05:53;;;;;;;4.97;1.63;;;;;;;29.52;35.75;99456.14;1635389;87;21069;-65
2021/08/10 14:08:20;;;;;;;1.87;1.40;;;;;;;29.48;35.09;99445.05;1635664;87;20935;-66
2021/08/10 14:10:47;;;;;;;;;;;;;;;29.44;35.20;99455.27;1637422;87;21037;-66
2021/08/10 14:13:15;;;;;;;5.17;4.05;;;;;;;29.42;34.99;99443.02;1613405;87;21142;-66
2021/08/10 14:15:44;;;;;;;11.80;5.10;;;;;;;29.37;35.88;99442.78;1635168;87;20914;-66
2021/08/10 14:18:13;;;;;;;7.28;3.45;;;;;;;29.19;37.94;99437.12;1635175;86;20998;-64
2021/08/10 14:20:40;;;;;;;18.67;15.08;;;;;;;29.32;37.35;99437.61;1634988;87;21813;-67
2021/08/10 14:23:07;;;;;;;13.55;10.98;;;;;;;29.10;34.78;99435.25;1631680;87;21162;-65
2021/08/10 14:25:34;;;;;;;11.75;4.28;;;;;;;28.71;36.14;99437.62;1631024;87;21102;-65
2021/08/10 14:28:01;;;;;;;2.92;2.00;;;;;;;28.89;35.97;99444.13;1692289;84;21058;-63
2021/08/10 14:30:27;;;;;;;6.53;1.73;;;;;;;29.00;34.70;99441.45;1686598;83;20937;-63
2021/08/10 14:32:54;;;;;;;2.67;1.80;;;;;;;28.69;34.90;99438.02;1688699;83;21417;-64
2021/08/10 14:35:21;;;;;;;2.40;1.55;;;;;;;28.69;35.57;99435.25;1722669;81;26862;-63
2021/08/10 14:37:48;;;;;;;5.60;1.63;;;;;;;28.88;35.81;99434.23;1743405;81;21871;-65
2021/08/10 14:40:15;;;;;;;2.00;1.50;;;;;;;28.74;35.17;99432.73;1735957;81;21412;-64
2021/08/10 14:42:43;;;;;;;3.52;1.55;;;;;;;28.91;36.31;99436.26;1722723;81;21026;-64
2021/08/10 14:45:11;;;;;;;6.05;2.25;;;;;;;28.96;34.24;99432.36;1749079;81;20967;-66
2021/08/10 14:47:39;;;;;;;4.00;1.80;;;;;;;28.92;34.61;99435.66;1724862;81;21316;-67
2021/08/10 14:50:09;;;;;;;8.83;2.10;;;;;;;29.04;35.18;99432.02;1717506;83;21123;-65
2021/08/10 14:52:35;;;;;;;2.30;1.40;;;;;;;29.02;33.89;99426.67;1694000;83;21410;-65
2021/08/10 14:55:03;;;;;;;3.90;1.65;;;;;;;28.76;33.57;99421.52;1736859;81;21470;-63
2021/08/10 14:57:30;;;;;;;4.97;3.00;;;;;;;28.84;34.91;99425.93;1686160;83;20968;-63
2021/08/10 14:59:58;;;;;;;2.65;2.05;;;;;;;28.72;34.17;99421.27;1688788;83;21002;-66
2021/08/10 15:02:25;;;;;;;6.55;2.22;;;;;;;28.73;36.54;99418.11;1704929;82;21091;-65
2021/08/10 15:04:51;;;;;;;1.90;1.70;;;;;;;28.80;35.70;99425.09;1707307;84;21065;-65
2021/08/10 15:07:20;;;;;;;26.10;2.47;;;;;;;28.81;35.33;99425.31;1722523;82;20882;-66
2021/08/10 15:09:46;;;;;;;8.60;2.30;;;;;;;28.93;36.29;99427.58;1750470;82;20866;-64
2021/08/10 15:12:14;;;;;;;4.93;2.60;;;;;;;28.96;34.95;99424.86;1747290;82;20922;-66
2021/08/10 15:14:45;;;;;;;4.25;2.10;;;;;;;28.93;34.81;99427.58;1707669;82;20917;-67
2021/08/10 15:17:13;;;;;;;4.78;2.02;;;;;;;28.57;34.85;99423.88;1735882;81;20916;-67
2021/08/10 15:19:41;;;;;;;3.70;2.47;;;;;;;28.54;35.75;99423.27;1728907;81;21008;-67
2021/08/10 15:22:08;;;;;;;2.08;1.70;;;;;;;28.57;36.33;99426.64;1728785;81;20957;-66
2021/08/10 15:24:36;;;;;;;;;;;;;;;28.53;35.16;99420.88;1769862;80;20960;-66
2021/08/10 15:27:05;;;;;;;6.22;4.37;;;;;;;28.57;35.73;99428.02;1738504;80;27231;-65
2021/08/10 15:29:32;;;;;;;13.30;3.12;;;;;;;28.50;35.47;99428.54;1707568;84;21470;-65
2021/08/10 15:31:58;;;;;;;3.77;2.47;;;;;;;28.51;36.49;99426.76;1707457;83;20944;-65
2021/08/10 15:34:25;;;;;;;8.53;7.42;;;;;;;28.41;35.20;99428.20;1707071;84;20988;-65
2021/08/10 15:36:52;;;;;;;6.08;4.50;;;;;;;28.10;34.79;99421.15;1708303;82;20924;-66
2021/08/10 15:39:20;;;;;;;5.83;3.58;;;;;;;28.07;34.98;99423.25;1719088;81;21095;-65
2021/08/10 15:41:48;;;;;;;6.97;2.65;;;;;;;27.92;35.25;99433.30;1741295;81;21081;-66
2021/08/10 15:44:16;;;;;;;3.67;2.42;;;;;;;27.77;36.61;99424.02;1741584;82;21015;-65
2021/08/10 15:46:43;;;;;;;6.08;2.40;;;;;;;27.52;36.59;99418.73;1742362;82;20906;-65
2021/08/10 15:49:11;;;;;;;3.92;2.10;;;;;;;27.19;37.58;99417.42;1742507;82;20960;-65
2021/08/10 15:51:38;;;;;;;6.67;2.50;;;;;;;27.01;38.18;99411.59;1742573;82;21111;-65
2021/08/10 15:54:06;;;;;;;7.12;2.30;;;;;;;27.16;37.95;99416.17;1742018;82;21380;-64
2021/08/10 15:56:34;;;;;;;5.20;2.25;;;;;;;27.05;38.08;99409.71;1738453;82;21067;-65
2021/08/10 15:59:02;;;;;;;5.78;2.40;;;;;;;26.79;38.94;99412.39;1733864;82;20952;-64
2021/08/10 16:01:29;;;;;;;3.00;2.33;;;;;;;26.61;39.76;99406.58;1720244;82;21005;-64
2021/08/10 16:03:56;;;;;;;4.72;1.87;;;;;;;26.32;39.51;99400.48;1742964;80;21119;-66
2021/08/10 16:06:23;;;;;;;5.87;2.10;;;;;;;26.19;40.57;99402.60;1742588;82;20942;-66
2021/08/10 16:08:52;;;;;;;9.28;2.22;;;;;;;26.04;40.96;99403.45;1743432;81;20964;-66
2021/08/10 16:11:18;;;;;;;3.37;2.40;;;;;;;25.88;41.74;99406.27;1743657;82;20894;-64
2021/08/10 16:13:45;;;;;;;6.20;1.92;;;;;;;25.73;41.30;99400.22;1743302;82;20957;-65
2021/08/10 16:16:13;;;;;;;5.37;2.70;;;;;;;25.67;42.59;99401.05;1736568;80;20858;-67
2021/08/10 16:18:40;;;;;;;7.53;2.35;;;;;;;25.51;42.81;99397.56;1731068;83;20933;-66
2021/08/10 16:21:08;;;;;;;5.30;2.90;;;;;;;25.38;43.05;99396.30;1730906;82;21028;-66
2021/08/10 16:23:34;;;;;;;4.72;2.80;;;;;;;25.44;43.32;99389.95;1739200;79;21040;-65
2021/08/10 16:26:01;;;;;;;7.47;3.12;;;;;;;25.44;43.55;99394.07;1766642;79;20976;-66
2021/08/10 16:28:27;;;;;;;8.90;3.30;;;;;;;25.28;44.08;99396.03;1768891;80;21111;-66
2021/08/10 16:30:54;;;;;;;3.77;2.30;;;;;;;25.15;44.99;99391.98;1750942;80;21477;-64
2021/08/10 16:33:21;;;;;;;3.70;2.65;;;;;;;25.00;45.56;99390.05;1741151;81;21315;-62
2021/08/10 16:35:47;;;;;;;11.22;3.87;;;;;;;24.87;46.18;99391.30;1746991;80;20913;-64
2021/08/10 16:38:14;;;;;;;16.37;3.37;;;;;;;24.75;47.46;99389.42;1769237;80;21017;-65
2021/08/10 16:40:40;;;;;;;7.22;4.40;;;;;;;24.56;49.32;99386.77;1753832;80;21049;-65
2021/08/10 16:43:07;;;;;;;9.75;7.00;;;;;;;24.37;49.34;99392.89;1732392;81;20955;-66